createdAt,value
2023-04-09T00:01:57.004Z,101042.24
2023-04-09T00:07:04.053Z,101044.63
2023-04-09T00:12:11.140Z,101043.77
2023-04-09T00:17:18.041Z,101043.45
2023-04-09T00:22:24.909Z,101035.75
2023-04-09T00:27:31.789Z,101039.67
2023-04-09T00:32:38.930Z,101037.80
2023-04-09T00:37:46.042Z,101042.24
2023-04-09T00:42:52.939Z,101039.17
2023-04-09T00:48:00.031Z,101040.87
2023-04-09T00:53:07.776Z,101041.20
2023-04-09T00:58:15.361Z,101042.58
2023-04-09T01:03:22.675Z,101046.84
2023-04-09T01:08:40.505Z,101044.29
2023-04-09T01:13:53.962Z,101044.45
2023-04-09T01:19:10.921Z,101048.38
2023-04-09T01:24:33.202Z,101062.19
2023-04-09T01:29:46.576Z,101067.13
2023-04-09T01:34:55.101Z,101070.89
2023-04-09T01:40:02.515Z,101074.98
2023-04-09T01:45:12.078Z,101082.33
2023-04-09T01:50:19.526Z,101089.83
2023-04-09T01:55:26.569Z,101096.82
2023-04-09T02:00:41.235Z,101094.59
2023-04-09T02:05:54.611Z,101096.46
2023-04-09T02:11:05.685Z,101093.20
2023-04-09T02:16:12.795Z,101084.13
2023-04-09T02:21:19.689Z,101088.36
2023-04-09T02:26:26.651Z,101085.79
2023-04-09T02:31:33.653Z,101085.27
2023-04-09T02:36:40.576Z,101083.38
2023-04-09T02:41:47.521Z,101083.04
2023-04-09T02:46:54.759Z,101083.73
2023-04-09T02:52:01.527Z,101086.27
2023-04-09T02:57:08.424Z,101087.98
2023-04-09T03:02:15.883Z,101081.33
2023-04-09T03:07:23.534Z,101077.23
2023-04-09T03:12:30.898Z,101079.63
2023-04-09T03:17:38.472Z,101077.60
2023-04-09T03:22:45.934Z,101077.26
2023-04-09T03:28:03.562Z,101074.89
2023-04-09T03:33:19.820Z,101073.86
2023-04-09T03:38:38.548Z,101075.23
2023-04-09T03:43:50.746Z,101073.02
2023-04-09T03:49:00.712Z,101069.61
2023-04-09T03:54:16.175Z,101071.84
2023-04-09T03:59:24.555Z,101072.87
2023-04-09T04:04:32.808Z,101077.98
2023-04-09T04:09:40.565Z,101085.84
2023-04-09T04:14:51.741Z,101085.67
2023-04-09T04:20:04.766Z,101090.79
2023-04-09T04:25:16.161Z,101094.55
2023-04-09T04:30:25.460Z,101096.58
2023-04-09T04:35:45.601Z,101097.27
2023-04-09T04:41:08.717Z,101097.79
2023-04-09T04:46:20.868Z,101094.20
2023-04-09T04:51:28.841Z,101099.14
2023-04-09T04:56:41.745Z,101101.86
2023-04-09T05:01:59.066Z,101101.02
2023-04-09T05:07:07.260Z,101098.97
2023-04-09T05:12:24.538Z,101103.77
2023-04-09T05:17:32.940Z,101102.77
2023-04-09T05:22:41.026Z,101101.41
2023-04-09T05:27:48.147Z,101104.33
2023-04-09T05:32:55.731Z,101109.45
2023-04-09T05:38:05.521Z,101109.45
2023-04-09T05:43:12.956Z,101115.44
2023-04-09T05:48:22.814Z,101117.14
2023-04-09T05:53:32.782Z,101117.98
2023-04-09T05:58:39.938Z,101117.98
2023-04-09T06:03:47.738Z,101118.48
2023-04-09T06:08:54.920Z,101117.42
2023-04-09T06:14:01.765Z,101124.54
2023-04-09T06:19:08.586Z,101122.45
2023-04-09T06:24:15.422Z,101117.12
2023-04-09T06:29:24.270Z,101122.23
2023-04-09T06:34:31.513Z,101123.98
2023-04-09T06:39:42.482Z,101125.86
2023-04-09T06:44:52.142Z,101123.65
2023-04-09T06:49:58.924Z,101129.96
2023-04-09T06:55:06.357Z,101133.55
2023-04-09T07:00:15.115Z,101140.05
2023-04-09T07:05:22.953Z,101146.86
2023-04-09T07:10:29.789Z,101145.66
2023-04-09T07:15:36.931Z,101146.52
2023-04-09T07:20:43.847Z,101146.52
2023-04-09T07:25:51.901Z,101150.27
2023-04-09T07:31:03.937Z,101148.05
2023-04-09T07:36:11.097Z,101146.88
2023-04-09T07:41:18.063Z,101147.36
2023-04-09T07:46:25.084Z,101145.84
2023-04-09T07:51:32.087Z,101156.79
2023-04-09T07:56:38.989Z,101156.80
2023-04-09T08:01:46.519Z,101151.17
2023-04-09T08:06:53.816Z,101145.90
2023-04-09T08:12:01.208Z,101141.64
2023-04-09T08:17:08.316Z,101143.67
2023-04-09T08:22:15.700Z,101152.71
2023-04-09T08:27:23.236Z,101153.05
2023-04-09T08:32:30.260Z,101156.48
2023-04-09T08:37:37.152Z,101157.70
2023-04-09T08:42:46.613Z,101157.36
2023-04-09T08:47:54.236Z,101160.25
2023-04-09T08:53:03.692Z,101164.73
2023-04-09T08:58:10.693Z,101164.74
2023-04-09T09:03:17.742Z,101167.52
2023-04-09T09:08:27.921Z,101162.59
2023-04-09T09:13:34.756Z,101157.33
2023-04-09T09:18:44.077Z,101161.95
2023-04-09T09:23:51.815Z,101163.66
2023-04-09T09:29:00.019Z,101167.60
2023-04-09T09:34:11.571Z,101167.09
2023-04-09T09:39:19.117Z,101170.01
2023-04-09T09:44:35.020Z,101167.09
2023-04-09T09:49:42.057Z,101165.05
2023-04-09T09:54:53.478Z,101165.02
2023-04-09T10:00:04.374Z,101164.64
2023-04-09T10:05:24.989Z,101162.41
2023-04-09T10:10:31.337Z,101166.48
2023-04-09T10:15:38.821Z,101158.61
2023-04-09T10:20:52.122Z,101156.22
2023-04-09T10:25:59.169Z,101161.48
2023-04-09T10:31:07.891Z,101160.65
2023-04-09T10:36:22.566Z,101163.56
2023-04-09T10:41:30.989Z,101158.62
2023-04-09T10:46:38.907Z,101154.03
2023-04-09T10:51:51.959Z,101155.41
2023-04-09T10:57:16.499Z,101156.61
2023-04-09T11:02:55.974Z,101155.78
2023-04-09T11:08:07.509Z,101154.60
2023-04-09T11:13:16.335Z,101149.14
2023-04-09T11:18:28.374Z,101143.85
2023-04-09T11:23:36.078Z,101140.43
2023-04-09T11:28:43.808Z,101136.69
2023-04-09T11:33:52.328Z,101136.52
2023-04-09T11:38:59.321Z,101134.65
2023-04-09T11:44:07.447Z,101131.41
2023-04-09T11:49:14.608Z,101134.48
2023-04-09T11:54:21.445Z,101144.06
2023-04-09T11:59:29.441Z,101142.70
2023-04-09T12:04:36.520Z,101143.21
2023-04-09T12:09:50.917Z,101145.27
2023-04-09T12:14:59.331Z,101150.91
2023-04-09T12:20:08.664Z,101153.80
2023-04-09T12:25:15.649Z,101153.13
2023-04-09T12:30:22.704Z,101158.25
2023-04-09T12:35:29.805Z,101158.94
2023-04-09T12:40:38.031Z,101155.34
2023-04-09T12:45:47.385Z,101152.94
2023-04-09T12:50:54.383Z,101152.08
2023-04-09T12:56:01.939Z,101151.56
2023-04-09T13:01:09.419Z,101147.63
2023-04-09T13:06:16.460Z,101150.34
2023-04-09T13:11:23.465Z,101149.65
2023-04-09T13:16:30.685Z,101147.25
2023-04-09T13:21:37.720Z,101146.73
2023-04-09T13:26:45.139Z,101142.45
2023-04-09T13:31:52.029Z,101142.59
2023-04-09T13:36:59.003Z,101138.48
2023-04-09T13:42:13.221Z,101134.38
2023-04-09T13:47:21.236Z,101133.69
2023-04-09T13:52:29.721Z,101135.57
2023-04-09T13:57:37.000Z,101138.65
2023-04-09T14:02:44.022Z,101138.81
2023-04-09T14:07:51.307Z,101137.97
2023-04-09T14:12:58.258Z,101143.96
2023-04-09T14:18:05.596Z,101137.64
2023-04-09T14:23:12.659Z,101135.06
2023-04-09T14:28:19.730Z,101137.45
2023-04-09T14:33:26.578Z,101134.04
2023-04-09T14:38:34.307Z,101133.54
2023-04-09T14:43:41.358Z,101133.02
2023-04-09T14:48:48.225Z,101130.80
2023-04-09T14:53:55.392Z,101129.77
2023-04-09T14:59:02.607Z,101128.73
2023-04-09T15:04:09.624Z,101129.59
2023-04-09T15:09:16.877Z,101126.85
2023-04-09T15:14:24.406Z,101124.11
2023-04-09T15:19:32.657Z,101121.23
2023-04-09T15:24:39.685Z,101121.40
2023-04-09T15:29:46.956Z,101119.36
2023-04-09T15:34:53.991Z,101119.71
2023-04-09T15:40:01.040Z,101121.60
2023-04-09T15:45:09.424Z,101116.98
2023-04-09T15:50:16.705Z,101113.90
2023-04-09T15:55:26.437Z,101111.67
2023-04-09T16:00:33.463Z,101115.80
2023-04-09T16:05:40.733Z,101110.66
2023-04-09T16:10:47.815Z,101109.99
2023-04-09T16:15:54.766Z,101111.36
2023-04-09T16:21:01.856Z,101112.39
2023-04-09T16:26:09.373Z,101111.38
2023-04-09T16:31:16.597Z,101110.70
2023-04-09T16:36:23.741Z,101104.05
2023-04-09T16:41:31.084Z,101104.38
2023-04-09T16:46:38.242Z,101102.51
2023-04-09T16:51:46.208Z,101102.34
2023-04-09T16:56:53.180Z,101102.69
2023-04-09T17:02:00.697Z,101111.23
2023-04-09T17:07:07.950Z,101113.96
2023-04-09T17:12:14.986Z,101118.58
2023-04-09T17:17:22.138Z,101123.20
2023-04-09T17:22:29.154Z,101129.35
2023-04-09T17:27:36.218Z,101126.61
2023-04-09T17:32:44.107Z,101124.41
2023-04-09T17:37:51.173Z,101128.67
2023-04-09T17:42:58.546Z,101128.16
2023-04-09T17:48:05.748Z,101137.39
2023-04-09T17:53:12.795Z,101136.71
2023-04-09T17:58:20.111Z,101142.17
2023-04-09T18:03:27.586Z,101141.50
2023-04-09T18:08:36.949Z,101147.46
2023-04-09T18:13:43.852Z,101147.82
2023-04-09T18:18:50.913Z,101149.36
2023-04-09T18:23:58.169Z,101149.37
2023-04-09T18:29:05.977Z,101151.75
2023-04-09T18:34:15.594Z,101157.91
2023-04-09T18:39:23.842Z,101162.54
2023-04-09T18:44:33.826Z,101166.47
2023-04-09T18:49:40.842Z,101169.20
2023-04-09T18:54:48.392Z,101175.54
2023-04-09T18:59:55.487Z,101178.09
2023-04-09T19:05:03.153Z,101184.08
2023-04-09T19:10:11.363Z,101190.57
2023-04-09T19:15:18.261Z,101194.49
2023-04-09T19:20:25.432Z,101194.67
2023-04-09T19:25:34.357Z,101195.02
2023-04-09T19:30:41.423Z,101191.77
2023-04-09T19:35:49.627Z,101194.49
2023-04-09T19:40:56.569Z,101199.45
2023-04-09T19:46:08.549Z,101204.24
2023-04-09T19:51:20.272Z,101198.77
2023-04-09T19:56:25.629Z,101200.31
2023-04-09T20:01:32.762Z,101200.14
2023-04-09T20:06:40.937Z,101205.27
2023-04-09T20:11:48.097Z,101209.72
2023-04-09T20:16:55.137Z,101207.66
2023-04-09T20:22:02.048Z,101205.27
2023-04-09T20:27:09.174Z,101206.63
2023-04-09T20:32:16.169Z,101209.88
2023-04-09T20:37:23.221Z,101206.46
2023-04-09T20:42:30.216Z,101203.04
2023-04-09T20:47:37.285Z,101206.80
2023-04-09T20:52:44.850Z,101205.08
2023-04-09T20:57:51.915Z,101197.73
2023-04-09T21:02:59.066Z,101202.50
2023-04-09T21:08:06.214Z,101204.36
2023-04-09T21:13:13.033Z,101207.60
2023-04-09T21:18:20.320Z,101213.06
2023-04-09T21:23:27.298Z,101212.03
2023-04-09T21:28:34.241Z,101206.89
2023-04-09T21:33:41.094Z,101208.59
2023-04-09T21:38:48.026Z,101204.64
2023-04-09T21:43:54.869Z,101208.04
2023-04-09T21:49:01.852Z,101209.38
2023-04-09T21:54:10.086Z,101209.36
2023-04-09T21:59:17.056Z,101215.14
2023-04-09T22:04:24.022Z,101212.40
2023-04-09T22:09:31.524Z,101213.41
2023-04-09T22:14:40.578Z,101219.19
2023-04-09T22:19:51.020Z,101220.75
2023-04-09T22:24:58.031Z,101211.69
2023-04-09T22:30:07.366Z,101209.80
2023-04-09T22:35:18.041Z,101207.05
2023-04-09T22:40:25.171Z,101202.43
2023-04-09T22:45:32.437Z,101201.20
2023-04-09T22:50:39.374Z,101195.58
2023-04-09T22:55:47.584Z,101199.31
2023-04-09T23:00:54.532Z,101206.27
2023-04-09T23:06:01.364Z,101208.25
2023-04-09T23:11:08.516Z,101208.35
2023-04-09T23:16:16.084Z,101201.92
2023-04-09T23:21:23.080Z,101205.42
2023-04-09T23:26:30.104Z,101204.54
2023-04-09T23:31:37.082Z,101200.58
2023-04-09T23:36:44.156Z,101199.01
2023-04-09T23:41:51.259Z,101200.15
2023-04-09T23:46:58.605Z,101205.53
2023-04-09T23:52:06.132Z,101202.55
2023-04-09T23:57:13.502Z,101201.99
